sensor_id;sensor_type;location;lat;lon;timestamp;P1;durP1;ratioP1;P2;durP2;ratioP2
34741;SDS011;20968;42.696;23.360;2023-05-21T00:01:16;15.65;;;7.75;;
34741;SDS011;20968;42.696;23.360;2023-05-21T00:06:39;12.15;;;7.47;;
34741;SDS011;20968;42.696;23.360;2023-05-21T00:15:20;12.95;;;6.25;;
34741;SDS011;20968;42.696;23.360;2023-05-21T00:17:59;12.20;;;6.75;;
34741;SDS011;20968;42.696;23.360;2023-05-21T00:26:09;18.90;;;7.00;;
34741;SDS011;20968;42.696;23.360;2023-05-21T00:35:04;14.73;;;7.43;;
34741;SDS011;20968;42.696;23.360;2023-05-21T00:40:20;11.43;;;6.00;;
34741;SDS011;20968;42.696;23.360;2023-05-21T00:46:21;12.45;;;7.40;;
34741;SDS011;20968;42.696;23.360;2023-05-21T01:02:06;11.52;;;8.15;;
34741;SDS011;20968;42.696;23.360;2023-05-21T01:08:20;10.50;;;7.00;;
34741;SDS011;20968;42.696;23.360;2023-05-21T01:14:31;10.30;;;7.55;;
34741;SDS011;20968;42.696;23.360;2023-05-21T01:17:03;13.20;;;8.35;;
34741;SDS011;20968;42.696;23.360;2023-05-21T01:22:56;15.70;;;7.70;;
34741;SDS011;20968;42.696;23.360;2023-05-21T01:42:45;10.57;;;6.50;;
34741;SDS011;20968;42.696;23.360;2023-05-21T01:52:33;10.32;;;7.70;;
34741;SDS011;20968;42.696;23.360;2023-05-21T01:55:14;12.15;;;8.00;;
34741;SDS011;20968;42.696;23.360;2023-05-21T02:04:17;12.85;;;7.63;;
34741;SDS011;20968;42.696;23.360;2023-05-21T02:10:35;11.38;;;6.72;;
34741;SDS011;20968;42.696;23.360;2023-05-21T02:16:54;11.07;;;6.45;;
34741;SDS011;20968;42.696;23.360;2023-05-21T02:20:29;10.77;;;6.20;;
34741;SDS011;20968;42.696;23.360;2023-05-21T02:27:07;11.95;;;6.13;;
34741;SDS011;20968;42.696;23.360;2023-05-21T02:29:54;14.80;;;6.43;;
34741;SDS011;20968;42.696;23.360;2023-05-21T02:32:38;15.35;;;6.78;;
34741;SDS011;20968;42.696;23.360;2023-05-21T02:35:31;13.43;;;6.72;;
34741;SDS011;20968;42.696;23.360;2023-05-21T02:44:48;11.10;;;6.80;;
34741;SDS011;20968;42.696;23.360;2023-05-21T02:48:20;10.73;;;7.43;;
34741;SDS011;20968;42.696;23.360;2023-05-21T02:59:48;10.90;;;6.50;;
34741;SDS011;20968;42.696;23.360;2023-05-21T03:02:42;10.13;;;6.22;;
34741;SDS011;20968;42.696;23.360;2023-05-21T03:08:59;22.17;;;6.05;;
34741;SDS011;20968;42.696;23.360;2023-05-21T03:18:15;11.35;;;7.18;;
34741;SDS011;20968;42.696;23.360;2023-05-21T03:20:49;10.75;;;7.32;;
34741;SDS011;20968;42.696;23.360;2023-05-21T03:23:48;8.73;;;6.10;;
34741;SDS011;20968;42.696;23.360;2023-05-21T03:29:14;13.23;;;7.40;;
34741;SDS011;20968;42.696;23.360;2023-05-21T03:41:52;11.73;;;6.38;;
34741;SDS011;20968;42.696;23.360;2023-05-21T03:44:30;10.48;;;7.60;;
34741;SDS011;20968;42.696;23.360;2023-05-21T03:50:26;18.83;;;8.63;;
34741;SDS011;20968;42.696;23.360;2023-05-21T04:06:37;13.07;;;6.72;;
34741;SDS011;20968;42.696;23.360;2023-05-21T04:13:00;11.30;;;6.38;;
34741;SDS011;20968;42.696;23.360;2023-05-21T04:22:25;20.77;;;6.45;;
34741;SDS011;20968;42.696;23.360;2023-05-21T04:32:07;9.20;;;6.40;;
34741;SDS011;20968;42.696;23.360;2023-05-21T04:41:43;9.88;;;6.53;;
34741;SDS011;20968;42.696;23.360;2023-05-21T04:44:29;10.10;;;6.90;;
34741;SDS011;20968;42.696;23.360;2023-05-21T04:47:03;12.35;;;6.13;;
34741;SDS011;20968;42.696;23.360;2023-05-21T04:56:08;11.77;;;6.70;;
34741;SDS011;20968;42.696;23.360;2023-05-21T04:58:59;13.13;;;6.75;;
34741;SDS011;20968;42.696;23.360;2023-05-21T05:01:41;9.45;;;6.35;;
34741;SDS011;20968;42.696;23.360;2023-05-21T05:04:22;12.75;;;6.60;;
34741;SDS011;20968;42.696;23.360;2023-05-21T05:07:00;15.75;;;7.00;;
34741;SDS011;20968;42.696;23.360;2023-05-21T05:13:07;8.88;;;6.10;;
34741;SDS011;20968;42.696;23.360;2023-05-21T05:15:38;6.10;;;4.63;;
34741;SDS011;20968;42.696;23.360;2023-05-21T05:18:03;7.53;;;4.00;;
34741;SDS011;20968;42.696;23.360;2023-05-21T05:20:30;9.75;;;4.40;;
34741;SDS011;20968;42.696;23.360;2023-05-21T05:22:55;5.38;;;3.95;;
34741;SDS011;20968;42.696;23.360;2023-05-21T05:25:23;7.40;;;4.90;;
34741;SDS011;20968;42.696;23.360;2023-05-21T05:27:52;13.88;;;5.38;;
34741;SDS011;20968;42.696;23.360;2023-05-21T05:32:48;13.05;;;5.25;;
34741;SDS011;20968;42.696;23.360;2023-05-21T05:35:16;9.13;;;5.90;;
34741;SDS011;20968;42.696;23.360;2023-05-21T05:40:18;9.00;;;4.60;;
34741;SDS011;20968;42.696;23.360;2023-05-21T05:46:04;10.80;;;6.07;;
34741;SDS011;20968;42.696;23.360;2023-05-21T05:51:53;11.07;;;6.43;;
34741;SDS011;20968;42.696;23.360;2023-05-21T05:54:37;14.95;;;7.30;;
34741;SDS011;20968;42.696;23.360;2023-05-21T05:57:22;12.98;;;6.15;;
34741;SDS011;20968;42.696;23.360;2023-05-21T05:59:53;11.10;;;7.05;;
34741;SDS011;20968;42.696;23.360;2023-05-21T06:12:06;12.25;;;6.60;;
34741;SDS011;20968;42.696;23.360;2023-05-21T06:17:22;15.05;;;6.22;;
34741;SDS011;20968;42.696;23.360;2023-05-21T06:19:49;9.98;;;5.88;;
34741;SDS011;20968;42.696;23.360;2023-05-21T06:22:37;9.27;;;6.13;;
34741;SDS011;20968;42.696;23.360;2023-05-21T06:25:14;6.97;;;4.72;;
34741;SDS011;20968;42.696;23.360;2023-05-21T06:27:46;8.27;;;4.75;;
34741;SDS011;20968;42.696;23.360;2023-05-21T06:30:12;5.05;;;3.95;;
34741;SDS011;20968;42.696;23.360;2023-05-21T06:32:37;6.30;;;4.65;;
34741;SDS011;20968;42.696;23.360;2023-05-21T06:35:11;6.45;;;3.58;;
34741;SDS011;20968;42.696;23.360;2023-05-21T06:37:38;8.50;;;4.30;;
34741;SDS011;20968;42.696;23.360;2023-05-21T06:46:20;7.00;;;3.53;;
34741;SDS011;20968;42.696;23.360;2023-05-21T06:48:47;7.68;;;4.13;;
34741;SDS011;20968;42.696;23.360;2023-05-21T06:51:16;5.85;;;3.38;;
34741;SDS011;20968;42.696;23.360;2023-05-21T06:53:46;6.32;;;3.45;;
34741;SDS011;20968;42.696;23.360;2023-05-21T06:56:13;6.88;;;3.42;;
34741;SDS011;20968;42.696;23.360;2023-05-21T06:58:39;6.63;;;3.13;;
34741;SDS011;20968;42.696;23.360;2023-05-21T07:01:05;12.55;;;5.03;;
34741;SDS011;20968;42.696;23.360;2023-05-21T07:03:36;7.57;;;3.88;;
34741;SDS011;20968;42.696;23.360;2023-05-21T07:06:02;7.93;;;3.90;;
34741;SDS011;20968;42.696;23.360;2023-05-21T07:08:50;7.03;;;3.75;;
34741;SDS011;20968;42.696;23.360;2023-05-21T07:11:16;9.93;;;3.67;;
34741;SDS011;20968;42.696;23.360;2023-05-21T07:13:43;7.18;;;3.70;;
34741;SDS011;20968;42.696;23.360;2023-05-21T07:16:08;6.90;;;3.67;;
34741;SDS011;20968;42.696;23.360;2023-05-21T07:18:37;6.97;;;4.20;;
34741;SDS011;20968;42.696;23.360;2023-05-21T07:21:02;8.60;;;4.47;;
34741;SDS011;20968;42.696;23.360;2023-05-21T07:23:28;6.47;;;4.28;;
34741;SDS011;20968;42.696;23.360;2023-05-21T07:25:54;8.95;;;3.88;;
34741;SDS011;20968;42.696;23.360;2023-05-21T07:28:20;7.25;;;4.35;;
34741;SDS011;20968;42.696;23.360;2023-05-21T07:30:48;10.30;;;4.50;;
34741;SDS011;20968;42.696;23.360;2023-05-21T07:33:13;10.75;;;4.70;;
34741;SDS011;20968;42.696;23.360;2023-05-21T07:35:39;8.23;;;3.78;;
34741;SDS011;20968;42.696;23.360;2023-05-21T07:38:05;7.18;;;4.38;;
34741;SDS011;20968;42.696;23.360;2023-05-21T07:40:30;7.32;;;4.22;;
34741;SDS011;20968;42.696;23.360;2023-05-21T07:42:56;7.55;;;3.28;;
34741;SDS011;20968;42.696;23.360;2023-05-21T07:45:25;6.65;;;3.95;;
34741;SDS011;20968;42.696;23.360;2023-05-21T07:47:51;8.00;;;4.20;;
34741;SDS011;20968;42.696;23.360;2023-05-21T07:53:12;6.68;;;3.40;;
34741;SDS011;20968;42.696;23.360;2023-05-21T07:55:39;7.15;;;3.00;;
34741;SDS011;20968;42.696;23.360;2023-05-21T07:58:13;10.32;;;3.10;;
34741;SDS011;20968;42.696;23.360;2023-05-21T08:00:42;8.75;;;3.17;;
34741;SDS011;20968;42.696;23.360;2023-05-21T08:03:10;6.47;;;2.45;;
34741;SDS011;20968;42.696;23.360;2023-05-21T08:05:37;8.77;;;3.35;;
34741;SDS011;20968;42.696;23.360;2023-05-21T08:08:03;5.85;;;2.63;;
34741;SDS011;20968;42.696;23.360;2023-05-21T08:10:30;6.70;;;2.72;;
34741;SDS011;20968;42.696;23.360;2023-05-21T08:12:55;7.63;;;2.63;;
34741;SDS011;20968;42.696;23.360;2023-05-21T08:15:21;4.00;;;3.15;;
34741;SDS011;20968;42.696;23.360;2023-05-21T08:17:47;6.15;;;2.33;;
34741;SDS011;20968;42.696;23.360;2023-05-21T08:20:13;5.80;;;2.53;;
34741;SDS011;20968;42.696;23.360;2023-05-21T08:22:41;25.15;;;3.08;;
34741;SDS011;20968;42.696;23.360;2023-05-21T08:25:07;4.32;;;2.33;;
34741;SDS011;20968;42.696;23.360;2023-05-21T08:27:33;4.75;;;2.55;;
34741;SDS011;20968;42.696;23.360;2023-05-21T08:29:58;5.38;;;3.20;;
34741;SDS011;20968;42.696;23.360;2023-05-21T08:32:24;6.88;;;2.55;;
34741;SDS011;20968;42.696;23.360;2023-05-21T08:34:49;6.10;;;2.85;;
34741;SDS011;20968;42.696;23.360;2023-05-21T08:37:24;8.38;;;2.63;;
34741;SDS011;20968;42.696;23.360;2023-05-21T08:39:51;4.68;;;2.53;;
34741;SDS011;20968;42.696;23.360;2023-05-21T08:42:38;7.50;;;2.42;;
34741;SDS011;20968;42.696;23.360;2023-05-21T08:45:37;5.82;;;2.67;;
34741;SDS011;20968;42.696;23.360;2023-05-21T08:48:26;9.05;;;2.78;;
34741;SDS011;20968;42.696;23.360;2023-05-21T08:50:57;6.63;;;2.55;;
34741;SDS011;20968;42.696;23.360;2023-05-21T08:53:27;7.28;;;3.00;;
34741;SDS011;20968;42.696;23.360;2023-05-21T08:56:00;4.47;;;2.90;;
34741;SDS011;20968;42.696;23.360;2023-05-21T08:58:50;10.80;;;4.28;;
34741;SDS011;20968;42.696;23.360;2023-05-21T09:01:21;6.28;;;4.35;;
34741;SDS011;20968;42.696;23.360;2023-05-21T09:03:51;6.10;;;2.53;;
34741;SDS011;20968;42.696;23.360;2023-05-21T09:06:49;5.22;;;2.30;;
34741;SDS011;20968;42.696;23.360;2023-05-21T09:09:32;3.55;;;2.28;;
34741;SDS011;20968;42.696;23.360;2023-05-21T09:12:06;7.63;;;3.05;;
34741;SDS011;20968;42.696;23.360;2023-05-21T09:14:39;11.55;;;3.75;;
34741;SDS011;20968;42.696;23.360;2023-05-21T09:17:06;3.97;;;2.28;;
34741;SDS011;20968;42.696;23.360;2023-05-21T09:19:32;4.55;;;2.97;;
34741;SDS011;20968;42.696;23.360;2023-05-21T09:22:07;9.10;;;2.42;;
34741;SDS011;20968;42.696;23.360;2023-05-21T09:24:36;8.68;;;3.05;;
34741;SDS011;20968;42.696;23.360;2023-05-21T09:27:02;7.35;;;2.72;;
34741;SDS011;20968;42.696;23.360;2023-05-21T09:29:46;3.70;;;2.65;;
34741;SDS011;20968;42.696;23.360;2023-05-21T09:32:21;6.80;;;2.17;;
34741;SDS011;20968;42.696;23.360;2023-05-21T09:35:19;3.38;;;2.20;;
34741;SDS011;20968;42.696;23.360;2023-05-21T09:37:52;6.80;;;2.42;;
34741;SDS011;20968;42.696;23.360;2023-05-21T09:41:08;6.93;;;2.40;;
34741;SDS011;20968;42.696;23.360;2023-05-21T09:43:43;8.48;;;2.45;;
34741;SDS011;20968;42.696;23.360;2023-05-21T09:46:10;5.30;;;2.83;;
34741;SDS011;20968;42.696;23.360;2023-05-21T09:51:10;6.97;;;2.05;;
34741;SDS011;20968;42.696;23.360;2023-05-21T09:56:17;5.90;;;3.28;;
34741;SDS011;20968;42.696;23.360;2023-05-21T09:58:47;6.85;;;2.22;;
34741;SDS011;20968;42.696;23.360;2023-05-21T10:01:13;5.50;;;2.63;;
34741;SDS011;20968;42.696;23.360;2023-05-21T10:03:42;6.45;;;2.70;;
34741;SDS011;20968;42.696;23.360;2023-05-21T10:06:11;4.43;;;2.20;;
34741;SDS011;20968;42.696;23.360;2023-05-21T10:08:39;3.00;;;2.17;;
34741;SDS011;20968;42.696;23.360;2023-05-21T10:11:08;6.40;;;2.45;;
34741;SDS011;20968;42.696;23.360;2023-05-21T10:13:37;3.28;;;2.42;;
34741;SDS011;20968;42.696;23.360;2023-05-21T10:16:08;7.95;;;2.72;;
34741;SDS011;20968;42.696;23.360;2023-05-21T10:18:33;7.00;;;2.63;;
34741;SDS011;20968;42.696;23.360;2023-05-21T10:21:01;14.02;;;3.13;;
34741;SDS011;20968;42.696;23.360;2023-05-21T10:23:28;5.50;;;2.63;;
34741;SDS011;20968;42.696;23.360;2023-05-21T10:25:54;6.85;;;2.60;;
34741;SDS011;20968;42.696;23.360;2023-05-21T10:28:21;8.05;;;2.65;;
34741;SDS011;20968;42.696;23.360;2023-05-21T10:30:46;4.10;;;3.20;;
34741;SDS011;20968;42.696;23.360;2023-05-21T10:33:14;10.85;;;2.75;;
34741;SDS011;20968;42.696;23.360;2023-05-21T10:35:46;3.38;;;2.10;;
34741;SDS011;20968;42.696;23.360;2023-05-21T10:38:13;7.40;;;3.28;;
34741;SDS011;20968;42.696;23.360;2023-05-21T10:40:47;7.53;;;3.22;;
34741;SDS011;20968;42.696;23.360;2023-05-21T10:52:49;7.30;;;2.72;;
34741;SDS011;20968;42.696;23.360;2023-05-21T11:01:52;4.75;;;2.90;;
34741;SDS011;20968;42.696;23.360;2023-05-21T11:04:24;7.60;;;2.70;;
34741;SDS011;20968;42.696;23.360;2023-05-21T11:06:50;9.45;;;3.38;;
34741;SDS011;20968;42.696;23.360;2023-05-21T11:09:16;9.30;;;3.08;;
34741;SDS011;20968;42.696;23.360;2023-05-21T11:15:10;7.95;;;2.75;;
34741;SDS011;20968;42.696;23.360;2023-05-21T11:17:37;10.30;;;3.85;;
34741;SDS011;20968;42.696;23.360;2023-05-21T11:20:26;9.67;;;2.80;;
34741;SDS011;20968;42.696;23.360;2023-05-21T11:22:58;6.70;;;4.18;;
34741;SDS011;20968;42.696;23.360;2023-05-21T11:25:23;4.78;;;2.40;;
34741;SDS011;20968;42.696;23.360;2023-05-21T11:27:49;4.28;;;2.80;;
34741;SDS011;20968;42.696;23.360;2023-05-21T11:30:17;5.47;;;3.20;;
34741;SDS011;20968;42.696;23.360;2023-05-21T11:35:56;5.13;;;2.65;;
34741;SDS011;20968;42.696;23.360;2023-05-21T11:38:36;4.70;;;2.53;;
34741;SDS011;20968;42.696;23.360;2023-05-21T11:41:35;5.22;;;2.78;;
34741;SDS011;20968;42.696;23.360;2023-05-21T11:44:41;13.43;;;2.88;;
34741;SDS011;20968;42.696;23.360;2023-05-21T11:49:42;7.47;;;2.83;;
34741;SDS011;20968;42.696;23.360;2023-05-21T11:52:16;13.77;;;2.70;;
34741;SDS011;20968;42.696;23.360;2023-05-21T11:54:52;3.22;;;2.47;;
34741;SDS011;20968;42.696;23.360;2023-05-21T11:57:20;5.32;;;2.40;;
34741;SDS011;20968;42.696;23.360;2023-05-21T12:00:11;3.50;;;2.55;;
34741;SDS011;20968;42.696;23.360;2023-05-21T12:02:50;6.05;;;2.72;;
34741;SDS011;20968;42.696;23.360;2023-05-21T12:05:23;7.50;;;3.35;;
34741;SDS011;20968;42.696;23.360;2023-05-21T12:07:48;7.43;;;2.55;;
34741;SDS011;20968;42.696;23.360;2023-05-21T12:10:14;5.93;;;2.92;;
34741;SDS011;20968;42.696;23.360;2023-05-21T12:12:40;8.40;;;3.60;;
34741;SDS011;20968;42.696;23.360;2023-05-21T12:15:06;3.53;;;2.22;;
34741;SDS011;20968;42.696;23.360;2023-05-21T12:17:36;7.22;;;3.45;;
34741;SDS011;20968;42.696;23.360;2023-05-21T12:20:03;4.57;;;2.78;;
34741;SDS011;20968;42.696;23.360;2023-05-21T12:22:33;5.82;;;2.85;;
34741;SDS011;20968;42.696;23.360;2023-05-21T12:24:58;4.35;;;2.83;;
34741;SDS011;20968;42.696;23.360;2023-05-21T12:27:25;8.43;;;3.00;;
34741;SDS011;20968;42.696;23.360;2023-05-21T12:29:52;7.82;;;3.20;;
34741;SDS011;20968;42.696;23.360;2023-05-21T12:32:18;5.43;;;2.95;;
34741;SDS011;20968;42.696;23.360;2023-05-21T12:34:49;5.80;;;3.03;;
34741;SDS011;20968;42.696;23.360;2023-05-21T12:42:28;8.48;;;3.50;;
34741;SDS011;20968;42.696;23.360;2023-05-21T12:44:55;9.18;;;3.35;;
34741;SDS011;20968;42.696;23.360;2023-05-21T12:47:22;4.38;;;3.42;;
34741;SDS011;20968;42.696;23.360;2023-05-21T12:50:02;14.45;;;3.78;;
34741;SDS011;20968;42.696;23.360;2023-05-21T12:52:30;3.92;;;3.03;;
34741;SDS011;20968;42.696;23.360;2023-05-21T12:54:55;5.53;;;2.85;;
34741;SDS011;20968;42.696;23.360;2023-05-21T12:57:34;6.03;;;2.80;;
34741;SDS011;20968;42.696;23.360;2023-05-21T13:00:30;8.33;;;3.13;;
34741;SDS011;20968;42.696;23.360;2023-05-21T13:02:57;4.22;;;2.95;;
34741;SDS011;20968;42.696;23.360;2023-05-21T13:05:39;9.93;;;3.45;;
34741;SDS011;20968;42.696;23.360;2023-05-21T13:08:05;4.88;;;3.30;;
34741;SDS011;20968;42.696;23.360;2023-05-21T13:10:45;6.75;;;3.38;;
34741;SDS011;20968;42.696;23.360;2023-05-21T13:13:11;3.80;;;2.75;;
34741;SDS011;20968;42.696;23.360;2023-05-21T13:15:41;4.43;;;2.30;;
34741;SDS011;20968;42.696;23.360;2023-05-21T13:18:08;10.38;;;3.60;;
34741;SDS011;20968;42.696;23.360;2023-05-21T13:20:46;6.07;;;2.70;;
34741;SDS011;20968;42.696;23.360;2023-05-21T13:23:17;7.03;;;3.60;;
34741;SDS011;20968;42.696;23.360;2023-05-21T13:25:58;6.32;;;3.53;;
34741;SDS011;20968;42.696;23.360;2023-05-21T13:28:31;4.35;;;3.20;;
34741;SDS011;20968;42.696;23.360;2023-05-21T13:31:21;9.15;;;4.10;;
34741;SDS011;20968;42.696;23.360;2023-05-21T13:33:52;15.25;;;4.88;;
34741;SDS011;20968;42.696;23.360;2023-05-21T13:36:24;8.73;;;3.40;;
34741;SDS011;20968;42.696;23.360;2023-05-21T13:38:51;7.43;;;3.38;;
34741;SDS011;20968;42.696;23.360;2023-05-21T13:41:16;5.70;;;3.03;;
34741;SDS011;20968;42.696;23.360;2023-05-21T13:43:43;9.15;;;3.30;;
34741;SDS011;20968;42.696;23.360;2023-05-21T13:49:11;5.95;;;3.15;;
34741;SDS011;20968;42.696;23.360;2023-05-21T13:51:40;3.45;;;2.80;;
34741;SDS011;20968;42.696;23.360;2023-05-21T13:54:07;4.57;;;3.15;;
34741;SDS011;20968;42.696;23.360;2023-05-21T13:56:32;5.65;;;3.13;;
34741;SDS011;20968;42.696;23.360;2023-05-21T13:58:59;7.38;;;3.17;;
34741;SDS011;20968;42.696;23.360;2023-05-21T14:01:26;3.65;;;2.45;;
34741;SDS011;20968;42.696;23.360;2023-05-21T14:03:52;7.53;;;3.72;;
34741;SDS011;20968;42.696;23.360;2023-05-21T14:06:17;6.78;;;2.67;;
34741;SDS011;20968;42.696;23.360;2023-05-21T14:08:42;5.30;;;3.42;;
34741;SDS011;20968;42.696;23.360;2023-05-21T14:11:08;6.13;;;3.03;;
34741;SDS011;20968;42.696;23.360;2023-05-21T14:13:33;9.25;;;3.33;;
34741;SDS011;20968;42.696;23.360;2023-05-21T14:15:59;6.88;;;2.88;;
34741;SDS011;20968;42.696;23.360;2023-05-21T14:18:24;10.00;;;3.38;;
34741;SDS011;20968;42.696;23.360;2023-05-21T14:20:53;10.20;;;3.58;;
34741;SDS011;20968;42.696;23.360;2023-05-21T14:23:21;6.63;;;3.72;;
34741;SDS011;20968;42.696;23.360;2023-05-21T14:25:50;4.18;;;3.05;;
34741;SDS011;20968;42.696;23.360;2023-05-21T14:28:15;5.22;;;3.60;;
34741;SDS011;20968;42.696;23.360;2023-05-21T14:30:44;7.88;;;2.85;;
34741;SDS011;20968;42.696;23.360;2023-05-21T14:33:36;7.70;;;4.55;;
34741;SDS011;20968;42.696;23.360;2023-05-21T14:36:07;6.32;;;4.18;;
34741;SDS011;20968;42.696;23.360;2023-05-21T14:38:41;5.07;;;3.30;;
34741;SDS011;20968;42.696;23.360;2023-05-21T14:41:11;6.97;;;3.13;;
34741;SDS011;20968;42.696;23.360;2023-05-21T14:43:38;7.05;;;3.88;;
34741;SDS011;20968;42.696;23.360;2023-05-21T14:46:19;14.05;;;4.22;;
34741;SDS011;20968;42.696;23.360;2023-05-21T14:48:54;10.65;;;3.45;;
34741;SDS011;20968;42.696;23.360;2023-05-21T14:51:23;6.50;;;3.65;;
34741;SDS011;20968;42.696;23.360;2023-05-21T14:53:49;5.95;;;4.00;;
34741;SDS011;20968;42.696;23.360;2023-05-21T14:56:15;6.13;;;3.92;;
34741;SDS011;20968;42.696;23.360;2023-05-21T14:58:40;9.65;;;4.30;;
34741;SDS011;20968;42.696;23.360;2023-05-21T15:01:06;42.72;;;7.93;;
34741;SDS011;20968;42.696;23.360;2023-05-21T15:03:31;14.70;;;4.78;;
34741;SDS011;20968;42.696;23.360;2023-05-21T15:05:57;7.22;;;4.15;;
34741;SDS011;20968;42.696;23.360;2023-05-21T15:08:22;10.60;;;4.15;;
34741;SDS011;20968;42.696;23.360;2023-05-21T15:10:48;10.93;;;5.57;;
34741;SDS011;20968;42.696;23.360;2023-05-21T15:13:14;12.70;;;5.18;;
34741;SDS011;20968;42.696;23.360;2023-05-21T15:15:40;9.27;;;3.95;;
34741;SDS011;20968;42.696;23.360;2023-05-21T15:18:06;9.55;;;3.42;;
34741;SDS011;20968;42.696;23.360;2023-05-21T15:20:31;17.77;;;4.88;;
34741;SDS011;20968;42.696;23.360;2023-05-21T15:22:57;6.40;;;4.45;;
34741;SDS011;20968;42.696;23.360;2023-05-21T15:25:25;7.68;;;4.20;;
34741;SDS011;20968;42.696;23.360;2023-05-21T15:27:50;13.85;;;3.65;;
34741;SDS011;20968;42.696;23.360;2023-05-21T15:30:15;10.48;;;3.75;;
34741;SDS011;20968;42.696;23.360;2023-05-21T15:32:41;13.15;;;5.30;;
34741;SDS011;20968;42.696;23.360;2023-05-21T15:35:07;11.95;;;4.32;;
34741;SDS011;20968;42.696;23.360;2023-05-21T15:37:32;9.23;;;4.15;;
34741;SDS011;20968;42.696;23.360;2023-05-21T15:40:01;9.00;;;3.60;;
34741;SDS011;20968;42.696;23.360;2023-05-21T15:42:31;7.25;;;4.22;;
34741;SDS011;20968;42.696;23.360;2023-05-21T15:44:56;6.78;;;4.05;;
34741;SDS011;20968;42.696;23.360;2023-05-21T15:47:22;13.63;;;5.18;;
34741;SDS011;20968;42.696;23.360;2023-05-21T15:49:49;11.38;;;4.93;;
34741;SDS011;20968;42.696;23.360;2023-05-21T15:52:14;13.43;;;4.22;;
34741;SDS011;20968;42.696;23.360;2023-05-21T15:54:41;10.55;;;4.55;;
34741;SDS011;20968;42.696;23.360;2023-05-21T15:59:36;7.57;;;4.72;;
34741;SDS011;20968;42.696;23.360;2023-05-21T16:02:02;7.28;;;3.50;;
34741;SDS011;20968;42.696;23.360;2023-05-21T16:04:34;7.03;;;3.13;;
34741;SDS011;20968;42.696;23.360;2023-05-21T16:07:00;8.88;;;3.67;;
34741;SDS011;20968;42.696;23.360;2023-05-21T16:09:27;4.65;;;3.05;;
34741;SDS011;20968;42.696;23.360;2023-05-21T16:11:52;5.95;;;3.03;;
34741;SDS011;20968;42.696;23.360;2023-05-21T16:14:34;5.50;;;3.20;;
34741;SDS011;20968;42.696;23.360;2023-05-21T16:16:59;6.87;;;3.13;;
34741;SDS011;20968;42.696;23.360;2023-05-21T16:19:25;4.45;;;3.13;;
34741;SDS011;20968;42.696;23.360;2023-05-21T16:21:59;3.95;;;2.70;;
34741;SDS011;20968;42.696;23.360;2023-05-21T16:24:27;8.05;;;2.72;;
34741;SDS011;20968;42.696;23.360;2023-05-21T16:26:54;6.28;;;3.53;;
34741;SDS011;20968;42.696;23.360;2023-05-21T16:29:23;11.63;;;3.85;;
34741;SDS011;20968;42.696;23.360;2023-05-21T16:31:49;5.35;;;3.35;;
34741;SDS011;20968;42.696;23.360;2023-05-21T16:34:14;12.68;;;4.22;;
34741;SDS011;20968;42.696;23.360;2023-05-21T16:36:40;6.65;;;3.13;;
34741;SDS011;20968;42.696;23.360;2023-05-21T16:39:05;7.85;;;3.33;;
34741;SDS011;20968;42.696;23.360;2023-05-21T16:41:32;9.25;;;3.42;;
34741;SDS011;20968;42.696;23.360;2023-05-21T16:43:57;5.68;;;3.22;;
34741;SDS011;20968;42.696;23.360;2023-05-21T16:46:23;11.50;;;4.07;;
34741;SDS011;20968;42.696;23.360;2023-05-21T16:48:48;11.55;;;3.80;;
34741;SDS011;20968;42.696;23.360;2023-05-21T16:51:17;11.77;;;3.80;;
34741;SDS011;20968;42.696;23.360;2023-05-21T16:53:42;15.35;;;4.22;;
34741;SDS011;20968;42.696;23.360;2023-05-21T16:56:08;16.75;;;5.15;;
34741;SDS011;20968;42.696;23.360;2023-05-21T16:58:34;11.20;;;4.85;;
34741;SDS011;20968;42.696;23.360;2023-05-21T17:01:02;4.20;;;3.33;;
34741;SDS011;20968;42.696;23.360;2023-05-21T17:03:28;9.18;;;3.92;;
34741;SDS011;20968;42.696;23.360;2023-05-21T17:05:56;11.70;;;6.00;;
34741;SDS011;20968;42.696;23.360;2023-05-21T17:08:21;11.00;;;3.55;;
34741;SDS011;20968;42.696;23.360;2023-05-21T17:10:48;8.55;;;3.92;;
34741;SDS011;20968;42.696;23.360;2023-05-21T17:13:14;6.88;;;3.85;;
34741;SDS011;20968;42.696;23.360;2023-05-21T17:15:41;6.22;;;3.45;;
34741;SDS011;20968;42.696;23.360;2023-05-21T17:18:07;6.50;;;3.35;;
34741;SDS011;20968;42.696;23.360;2023-05-21T17:20:35;6.93;;;3.78;;
34741;SDS011;20968;42.696;23.360;2023-05-21T17:23:03;5.32;;;3.40;;
34741;SDS011;20968;42.696;23.360;2023-05-21T17:25:28;8.80;;;3.70;;
34741;SDS011;20968;42.696;23.360;2023-05-21T17:27:54;7.10;;;3.00;;
34741;SDS011;20968;42.696;23.360;2023-05-21T17:30:20;5.57;;;3.90;;
34741;SDS011;20968;42.696;23.360;2023-05-21T17:32:45;12.05;;;4.38;;
34741;SDS011;20968;42.696;23.360;2023-05-21T17:35:13;8.27;;;3.95;;
34741;SDS011;20968;42.696;23.360;2023-05-21T17:37:40;7.18;;;3.85;;
34741;SDS011;20968;42.696;23.360;2023-05-21T17:40:12;11.95;;;4.90;;
34741;SDS011;20968;42.696;23.360;2023-05-21T17:42:37;7.90;;;4.22;;
34741;SDS011;20968;42.696;23.360;2023-05-21T17:45:03;8.98;;;5.15;;
34741;SDS011;20968;42.696;23.360;2023-05-21T17:47:29;8.20;;;4.28;;
34741;SDS011;20968;42.696;23.360;2023-05-21T17:49:56;9.68;;;4.65;;
34741;SDS011;20968;42.696;23.360;2023-05-21T17:52:22;7.95;;;4.18;;
34741;SDS011;20968;42.696;23.360;2023-05-21T17:54:47;9.07;;;4.18;;
34741;SDS011;20968;42.696;23.360;2023-05-21T17:57:22;6.55;;;3.75;;
34741;SDS011;20968;42.696;23.360;2023-05-21T17:59:47;15.30;;;5.43;;
34741;SDS011;20968;42.696;23.360;2023-05-21T18:02:13;7.47;;;4.95;;
34741;SDS011;20968;42.696;23.360;2023-05-21T18:04:38;13.90;;;4.68;;
34741;SDS011;20968;42.696;23.360;2023-05-21T18:07:04;5.80;;;4.05;;
34741;SDS011;20968;42.696;23.360;2023-05-21T18:09:38;11.23;;;6.05;;
34741;SDS011;20968;42.696;23.360;2023-05-21T18:12:07;8.80;;;5.15;;
34741;SDS011;20968;42.696;23.360;2023-05-21T18:14:38;11.60;;;4.68;;
34741;SDS011;20968;42.696;23.360;2023-05-21T18:17:04;12.40;;;5.28;;
34741;SDS011;20968;42.696;23.360;2023-05-21T18:19:30;8.45;;;4.15;;
34741;SDS011;20968;42.696;23.360;2023-05-21T18:21:56;9.07;;;4.55;;
34741;SDS011;20968;42.696;23.360;2023-05-21T18:24:21;8.15;;;5.30;;
34741;SDS011;20968;42.696;23.360;2023-05-21T18:26:47;6.97;;;4.40;;
34741;SDS011;20968;42.696;23.360;2023-05-21T18:29:14;7.70;;;4.10;;
34741;SDS011;20968;42.696;23.360;2023-05-21T18:31:39;11.50;;;5.25;;
34741;SDS011;20968;42.696;23.360;2023-05-21T18:34:08;11.13;;;4.38;;
34741;SDS011;20968;42.696;23.360;2023-05-21T18:36:35;8.82;;;3.53;;
34741;SDS011;20968;42.696;23.360;2023-05-21T18:39:06;6.70;;;4.47;;
34741;SDS011;20968;42.696;23.360;2023-05-21T18:41:31;13.85;;;5.22;;
34741;SDS011;20968;42.696;23.360;2023-05-21T18:43:57;11.07;;;6.00;;
34741;SDS011;20968;42.696;23.360;2023-05-21T18:46:25;10.13;;;5.53;;
34741;SDS011;20968;42.696;23.360;2023-05-21T18:48:51;22.80;;;6.65;;
34741;SDS011;20968;42.696;23.360;2023-05-21T18:51:17;15.05;;;8.13;;
34741;SDS011;20968;42.696;23.360;2023-05-21T18:53:42;15.30;;;7.90;;
34741;SDS011;20968;42.696;23.360;2023-05-21T18:56:08;12.25;;;6.72;;
34741;SDS011;20968;42.696;23.360;2023-05-21T18:58:34;14.43;;;5.82;;
34741;SDS011;20968;42.696;23.360;2023-05-21T19:01:00;9.50;;;4.95;;
34741;SDS011;20968;42.696;23.360;2023-05-21T19:03:26;8.38;;;5.35;;
34741;SDS011;20968;42.696;23.360;2023-05-21T19:05:52;11.98;;;5.18;;
34741;SDS011;20968;42.696;23.360;2023-05-21T19:08:17;7.00;;;4.20;;
34741;SDS011;20968;42.696;23.360;2023-05-21T19:10:42;8.60;;;3.70;;